Time;durP1;ratioP1;P1;durP2;ratioP2;P2;SDS_P1;SDS_P2;PMS_P1;PMS_P2;Temp;Humidity;BMP_temperature;BMP_pressure;BME280_temperature;BME280_humidity;BME280_pressure;Samples;Min_cycle;Max_cycle;Signal;HPM_P1;HPM_P2
2023/07/20 00:01:44;;;;;;;6.05;3.03;;;16.80;1.00;;;;;;6215615;23;20034;-82
2023/07/20 00:04:32;;;;;;;6.72;2.85;;;16.80;1.00;;;;;;6214596;23;20025;-82
2023/07/20 00:07:22;;;;;;;5.97;2.65;;;16.70;1.00;;;;;;6215529;23;20293;-81
2023/07/20 00:10:09;;;;;;;6.10;3.20;;;16.60;1.00;;;;;;6212231;23;20171;-82
2023/07/20 00:12:59;;;;;;;7.15;2.72;;;16.60;1.00;;;;;;6214849;23;20079;-82
2023/07/20 00:15:49;;;;;;;7.75;2.97;;;16.50;1.00;;;;;;6214624;23;20043;-82
2023/07/20 00:18:37;;;;;;;4.53;2.95;;;16.50;1.00;;;;;;6216234;23;20480;-84
2023/07/20 00:21:33;;;;;;;4.13;2.50;;;16.50;1.00;;;;;;6214389;23;20029;-90
2023/07/20 00:24:20;;;;;;;4.63;2.80;;;16.40;1.00;;;;;;6220061;23;20056;-91
2023/07/20 00:27:08;;;;;;;6.30;2.85;;;16.30;1.00;;;;;;6219374;23;20048;-91
2023/07/20 00:29:56;;;;;;;9.05;3.15;;;16.30;1.00;;;;;;6217619;23;20268;-91
2023/07/20 00:32:43;;;;;;;3.88;2.53;;;16.30;1.00;;;;;;6220297;23;20032;-90
2023/07/20 00:35:31;;;;;;;3.80;2.55;;;16.20;1.00;;;;;;6220410;23;20020;-89
2023/07/20 00:38:20;;;;;;;5.50;2.90;;;16.10;1.00;;;;;;6217955;23;20040;-90
2023/07/20 00:41:08;;;;;;;4.82;3.15;;;16.00;1.00;;;;;;6219021;23;20028;-90
2023/07/20 00:43:56;;;;;;;7.40;3.33;;;16.00;8.10;;;;;;6220363;23;20408;-90
2023/07/20 00:46:43;;;;;;;6.55;3.10;;;15.90;15.30;;;;;;6218250;23;20025;-86
2023/07/20 00:49:32;;;;;;;6.22;2.80;;;15.80;18.40;;;;;;6218986;23;20075;-89
2023/07/20 00:52:21;;;;;;;6.10;2.60;;;15.70;17.00;;;;;;6218149;23;20041;-89
2023/07/20 00:55:13;;;;;;;6.82;3.03;;;15.70;17.10;;;;;;6215797;23;20108;-92
2023/07/20 00:58:01;;;;;;;6.97;2.72;;;15.70;14.60;;;;;;6216727;23;20025;-89
2023/07/20 01:00:49;;;;;;;4.88;2.90;;;15.70;12.50;;;;;;6220897;22;20080;-91
2023/07/20 01:03:37;;;;;;;4.47;2.75;;;15.60;7.30;;;;;;6215750;23;20032;-91
2023/07/20 01:06:33;;;;;;;8.27;3.20;;;15.60;11.00;;;;;;6217971;23;20024;-90
2023/07/20 01:09:31;;;;;;;5.65;2.95;;;15.50;17.70;;;;;;6215866;23;20025;-92
2023/07/20 01:12:27;;;;;;;8.30;2.88;;;15.40;30.00;;;;;;6218439;23;20032;-89
2023/07/20 01:15:15;;;;;;;4.45;2.88;;;15.30;42.80;;;;;;6215803;23;20094;-91
2023/07/20 01:18:04;;;;;;;5.20;2.83;;;15.20;46.70;;;;;;6218324;23;20420;-90
2023/07/20 01:20:59;;;;;;;10.68;3.53;;;15.20;48.40;;;;;;6218599;23;20024;-89
2023/07/20 01:24:08;;;;;;;4.53;2.95;;;15.30;46.70;;;;;;6218349;23;20127;-90
2023/07/20 01:27:29;;;;;;;9.82;3.28;;;15.30;44.80;;;;;;6217447;23;20052;-90
2023/07/20 01:30:39;;;;;;;9.50;3.05;;;15.30;46.80;;;;;;6217009;23;20048;-91
2023/07/20 01:33:31;;;;;;;3.88;2.90;;;15.20;43.90;;;;;;6218446;23;20035;-89
2023/07/20 01:36:19;;;;;;;8.77;3.33;;;15.20;43.70;;;;;;6215902;23;20028;-90
2023/07/20 01:39:08;;;;;;;5.53;2.55;;;15.10;45.40;;;;;;6219730;23;20114;-91
2023/07/20 01:41:56;;;;;;;3.70;2.55;;;15.10;46.70;;;;;;6218972;23;20113;-92
2023/07/20 01:44:44;;;;;;;3.60;2.78;;;15.10;47.90;;;;;;6220720;23;20436;-90
2023/07/20 01:47:34;;;;;;;4.82;2.65;;;15.10;52.70;;;;;;6219041;23;20048;-88
2023/07/20 01:50:22;;;;;;;5.95;3.13;;;15.00;54.80;;;;;;6225724;23;20086;-89
2023/07/20 01:53:10;;;;;;;5.53;2.83;;;14.90;60.30;;;;;;6222440;23;20025;-91
2023/07/20 01:55:57;;;;;;;12.68;3.10;;;14.90;64.00;;;;;;6220046;23;20040;-92
2023/07/20 01:58:45;;;;;;;5.82;2.90;;;14.80;70.00;;;;;;6218649;23;20314;-92
2023/07/20 02:01:33;;;;;;;6.32;2.90;;;14.80;74.90;;;;;;6218698;23;20044;-91
2023/07/20 02:04:21;;;;;;;9.55;3.00;;;14.80;78.70;;;;;;6220917;23;20024;-90
2023/07/20 02:07:09;;;;;;;7.80;3.05;;;14.80;74.00;;;;;;6220334;23;20028;-90
2023/07/20 02:09:56;;;;;;;5.07;2.75;;;14.70;84.20;;;;;;6216708;23;20296;-90
2023/07/20 02:12:44;;;;;;;6.90;3.00;;;14.60;89.80;;;;;;6218130;23;20118;-91
2023/07/20 02:15:32;;;;;;;7.50;3.13;;;14.60;93.70;;;;;;6222028;22;20444;-90
2023/07/20 02:18:19;;;;;;;4.75;2.75;;;14.50;99.90;;;;;;6222340;23;20455;-89
2023/07/20 02:21:07;;;;;;;4.40;3.08;;;14.50;99.90;;;;;;6237189;23;20037;-90
2023/07/20 02:23:55;;;;;;;8.23;3.25;;;14.40;99.90;;;;;;6233381;23;20051;-91
2023/07/20 02:26:42;;;;;;;7.43;3.67;;;14.30;99.90;;;;;;6233156;23;20072;-91
2023/07/20 02:29:29;;;;;;;6.72;3.25;;;14.20;99.90;;;;;;6220263;23;20418;-92
2023/07/20 02:32:17;;;;;;;8.38;3.08;;;14.30;99.90;;;;;;6221532;23;20028;-91
2023/07/20 02:35:04;;;;;;;8.95;3.30;;;14.30;99.90;;;;;;6218696;23;20040;-89
2023/07/20 02:37:52;;;;;;;4.80;2.67;;;14.30;99.90;;;;;;6219652;23;20080;-90
2023/07/20 02:40:39;;;;;;;8.00;3.05;;;14.30;99.90;;;;;;6219037;23;20486;-91
2023/07/20 02:43:29;;;;;;;5.05;2.92;;;14.40;99.90;;;;;;6220047;23;20028;-90
2023/07/20 02:46:16;;;;;;;6.82;3.42;;;14.40;99.90;;;;;;6219633;23;20029;-88
2023/07/20 02:49:04;;;;;;;5.10;3.40;;;14.30;99.90;;;;;;6219387;23;20106;-92
2023/07/20 02:51:51;;;;;;;4.25;2.83;;;14.30;99.90;;;;;;6219675;23;20025;-89
2023/07/20 02:54:39;;;;;;;6.10;3.25;;;14.20;99.90;;;;;;6219171;23;20020;-89
2023/07/20 02:57:27;;;;;;;5.55;3.30;;;14.20;99.90;;;;;;6218969;23;20039;-91
2023/07/20 03:00:17;;;;;;;6.95;2.97;;;14.10;99.90;;;;;;6217529;23;20034;-91
2023/07/20 03:03:09;;;;;;;7.13;3.50;;;14.00;99.90;;;;;;6220035;23;20031;-91
2023/07/20 03:05:59;;;;;;;4.75;3.15;;;14.00;99.90;;;;;;6217825;23;20028;-90
2023/07/20 03:08:48;;;;;;;4.65;3.22;;;13.90;99.90;;;;;;6220696;23;20024;-89
2023/07/20 03:11:36;;;;;;;7.53;3.17;;;13.90;99.90;;;;;;6220737;23;20072;-90
2023/07/20 03:14:23;;;;;;;5.72;3.40;;;13.90;99.90;;;;;;6221299;23;20116;-89
2023/07/20 03:17:11;;;;;;;5.57;2.95;;;13.80;99.90;;;;;;6228469;23;20316;-89
2023/07/20 03:19:59;;;;;;;6.40;3.00;;;13.90;99.90;;;;;;6219383;23;20056;-88
2023/07/20 03:22:47;;;;;;;6.00;3.05;;;13.90;99.90;;;;;;6220039;23;20492;-89
2023/07/20 03:25:37;;;;;;;7.20;3.22;;;13.80;99.90;;;;;;6219627;23;20021;-91
2023/07/20 03:28:27;;;;;;;4.82;2.92;;;13.80;99.90;;;;;;6218765;23;20024;-88
2023/07/20 03:31:15;;;;;;;5.25;3.28;;;13.70;99.90;;;;;;6218697;23;20021;-89
2023/07/20 03:34:02;;;;;;;8.85;3.60;;;13.60;99.90;;;;;;6221892;23;20024;-89
2023/07/20 03:36:50;;;;;;;5.15;3.80;;;13.60;99.90;;;;;;6225213;23;20090;-89
2023/07/20 03:39:42;;;;;;;4.10;3.22;;;13.60;99.90;;;;;;6223804;23;20076;-89
2023/07/20 03:42:30;;;;;;;5.82;3.60;;;13.60;99.90;;;;;;6219135;23;20020;-90
2023/07/20 03:45:19;;;;;;;7.20;3.70;;;13.50;99.90;;;;;;6216359;23;20028;-90
2023/07/20 03:48:11;;;;;;;6.10;3.97;;;13.50;99.90;;;;;;6217120;23;20428;-91
2023/07/20 03:51:00;;;;;;;9.90;3.65;;;13.50;99.90;;;;;;6216169;23;20021;-91
2023/07/20 03:53:49;;;;;;;5.28;3.17;;;13.50;99.90;;;;;;6219223;23;20100;-90
2023/07/20 03:56:36;;;;;;;6.20;3.50;;;13.50;99.90;;;;;;6216567;23;20063;-90
2023/07/20 03:59:23;;;;;;;5.00;3.20;;;13.40;99.90;;;;;;6217856;23;20099;-91
2023/07/20 04:06:20;;;;;;;10.38;3.75;;;13.40;99.90;;;;;;6219728;23;20013;-90
2023/07/20 04:09:08;;;;;;;7.22;4.00;;;13.40;99.90;;;;;;6218196;23;20020;-90
2023/07/20 04:11:55;;;;;;;7.70;3.38;;;13.50;99.90;;;;;;6217730;23;20028;-90
2023/07/20 04:14:43;;;;;;;7.55;3.78;;;13.60;99.90;;;;;;6220439;23;20162;-89
2023/07/20 04:17:30;;;;;;;10.02;3.20;;;13.80;99.90;;;;;;6219810;23;20024;-89
2023/07/20 04:20:18;;;;;;;4.82;3.08;;;14.00;99.90;;;;;;6221215;23;20048;-90
2023/07/20 04:23:05;;;;;;;7.55;3.08;;;14.20;99.90;;;;;;6221867;23;20101;-91
2023/07/20 04:25:54;;;;;;;6.85;2.95;;;14.40;99.90;;;;;;6221079;23;20136;-90
2023/07/20 04:28:44;;;;;;;4.05;2.70;;;14.40;99.90;;;;;;6217266;23;20092;-90
2023/07/20 04:31:39;;;;;;;7.30;3.40;;;14.50;99.90;;;;;;6218879;23;20179;-90
2023/07/20 04:34:29;;;;;;;6.72;2.92;;;14.50;99.90;;;;;;6218731;23;20020;-90
2023/07/20 04:37:16;;;;;;;4.97;3.00;;;14.70;99.90;;;;;;6218619;23;20028;-91
2023/07/20 04:40:06;;;;;;;4.78;2.90;;;14.80;99.90;;;;;;6220345;23;20028;-89
2023/07/20 04:42:54;;;;;;;4.90;3.10;;;14.90;99.90;;;;;;6218088;23;20048;-92
2023/07/20 04:45:41;;;;;;;8.48;2.90;;;14.90;99.90;;;;;;6220930;23;20032;-90
2023/07/20 04:48:31;;;;;;;3.92;2.53;;;15.00;99.90;;;;;;6217650;23;20373;-86
2023/07/20 04:51:22;;;;;;;3.97;2.92;;;15.10;99.90;;;;;;6217706;23;20028;-87
2023/07/20 04:54:09;;;;;;;3.67;2.63;;;15.20;99.90;;;;;;6219203;23;20021;-86
2023/07/20 04:56:59;;;;;;;6.63;2.72;;;15.20;99.90;;;;;;6217055;23;20033;-86
2023/07/20 04:59:48;;;;;;;5.15;2.90;;;15.30;99.90;;;;;;6215236;23;20032;-86
2023/07/20 05:02:36;;;;;;;5.82;2.72;;;15.40;99.90;;;;;;6217378;23;20070;-88
2023/07/20 05:05:23;;;;;;;6.03;2.80;;;15.50;99.90;;;;;;6217542;23;20327;-88
2023/07/20 05:08:13;;;;;;;12.48;7.60;;;15.60;99.90;;;;;;6215145;23;20029;-87
2023/07/20 05:11:00;;;;;;;8.55;3.60;;;15.70;99.90;;;;;;6217705;23;20024;-85
2023/07/20 05:13:49;;;;;;;8.40;2.95;;;15.80;99.90;;;;;;6215995;23;20030;-85
2023/07/20 05:16:36;;;;;;;5.75;2.58;;;15.90;99.90;;;;;;6217122;23;20039;-87
2023/07/20 05:19:25;;;;;;;5.63;2.83;;;16.10;99.90;;;;;;6218576;23;20112;-86
2023/07/20 05:22:14;;;;;;;3.97;2.55;;;16.20;99.90;;;;;;6218677;23;20024;-87
2023/07/20 05:25:01;;;;;;;4.47;2.50;;;16.30;99.90;;;;;;6217539;23;20712;-88
2023/07/20 05:27:50;;;;;;;9.60;2.97;;;16.30;99.90;;;;;;6216651;23;20026;-87
2023/07/20 05:30:37;;;;;;;5.07;2.50;;;16.40;99.90;;;;;;6217347;23;20024;-89
2023/07/20 05:33:26;;;;;;;6.53;2.50;;;16.40;99.90;;;;;;6218588;23;20024;-89
2023/07/20 05:36:16;;;;;;;4.22;2.85;;;16.40;99.90;;;;;;6219938;23;20086;-90
2023/07/20 05:39:03;;;;;;;5.05;2.50;;;16.50;99.90;;;;;;6219016;23;20057;-90
2023/07/20 05:41:53;;;;;;;6.90;2.80;;;16.60;99.90;;;;;;6217781;23;20099;-89
2023/07/20 05:44:42;;;;;;;6.57;2.55;;;16.80;99.90;;;;;;6220047;23;20025;-89
2023/07/20 05:47:32;;;;;;;4.03;2.42;;;16.90;99.90;;;;;;6219141;23;20373;-90
2023/07/20 05:50:22;;;;;;;6.35;2.55;;;16.90;99.80;;;;;;6218358;23;20055;-89
2023/07/20 05:53:10;;;;;;;7.15;2.95;;;17.00;95.90;;;;;;6217832;23;20115;-91
2023/07/20 05:55:59;;;;;;;5.28;2.60;;;17.10;95.80;;;;;;6216467;23;20025;-90
2023/07/20 05:58:47;;;;;;;4.80;2.65;;;17.10;95.10;;;;;;6217634;23;20040;-90
2023/07/20 06:01:34;;;;;;;4.78;2.38;;;17.10;91.20;;;;;;6217970;23;20067;-90
2023/07/20 06:04:22;;;;;;;5.57;2.55;;;17.20;94.00;;;;;;6215251;23;20028;-90
2023/07/20 06:07:09;;;;;;;6.78;2.70;;;17.20;90.90;;;;;;6218732;23;20091;-89
2023/07/20 06:09:58;;;;;;;7.75;2.53;;;17.40;77.30;;;;;;6216968;23;20048;-88
2023/07/20 06:12:48;;;;;;;9.27;2.67;;;17.40;80.10;;;;;;6218130;23;20052;-90
2023/07/20 06:15:35;;;;;;;9.95;2.95;;;17.50;76.90;;;;;;6215394;23;20383;-90
2023/07/20 06:18:23;;;;;;;8.45;2.70;;;17.70;90.20;;;;;;6217734;23;20328;-90
2023/07/20 06:21:12;;;;;;;4.80;2.35;;;17.80;54.90;;;;;;6219306;22;20393;-92
2023/07/20 06:24:02;;;;;;;8.02;2.22;;;17.90;49.30;;;;;;6218306;23;20419;-91
2023/07/20 06:26:52;;;;;;;4.70;2.30;;;18.00;50.90;;;;;;6219559;23;20043;-90
2023/07/20 06:29:40;;;;;;;2.83;1.90;;;18.20;41.20;;;;;;6221393;23;20027;-91
2023/07/20 06:32:30;;;;;;;4.68;2.30;;;18.10;29.10;;;;;;6220402;23;20395;-90
2023/07/20 06:35:17;;;;;;;8.05;2.15;;;18.20;28.30;;;;;;6220018;23;20091;-89
2023/07/20 06:38:05;;;;;;;6.88;2.53;;;18.30;23.90;;;;;;6219608;23;20028;-90
2023/07/20 06:40:55;;;;;;;5.13;2.20;;;18.40;10.50;;;;;;6216265;23;20103;-88
2023/07/20 06:43:43;;;;;;;6.10;2.50;;;18.40;10.20;;;;;;6216196;23;20028;-89
2023/07/20 06:46:35;;;;;;;4.50;2.88;;;18.50;6.50;;;;;;6216453;23;20337;-90
2023/07/20 06:49:29;;;;;;;4.60;2.20;;;18.60;1.00;;;;;;6215031;23;20025;-87
2023/07/20 06:52:17;;;;;;;5.57;2.50;;;18.80;1.00;;;;;;6215190;23;20027;-87
2023/07/20 06:55:06;;;;;;;5.78;2.65;;;18.90;1.00;;;;;;6215966;23;20028;-86
2023/07/20 06:57:53;;;;;;;4.28;2.47;;;18.80;1.00;;;;;;6216967;23;20043;-89
2023/07/20 07:01:39;;;;;;;5.43;2.63;;;19.00;1.00;;;;;;6218527;23;20095;-91
2023/07/20 07:04:41;;;;;;;7.18;2.53;;;19.30;1.00;;;;;;6218050;23;20367;-92
2023/07/20 07:07:52;;;;;;;7.40;2.80;;;19.40;1.00;;;;;;6218817;23;20103;-92
2023/07/20 07:10:44;;;;;;;4.63;1.95;;;19.60;1.00;;;;;;6220174;23;20020;-92
2023/07/20 07:13:43;;;;;;;6.10;2.67;;;19.70;1.00;;;;;;6226248;23;20048;-91
2023/07/20 07:16:40;;;;;;;5.60;2.25;;;19.60;1.00;;;;;;6226715;23;20058;-89
2023/07/20 07:19:35;;;;;;;8.68;2.60;;;19.80;1.00;;;;;;6225868;23;20068;-90
2023/07/20 07:22:30;;;;;;;6.07;2.33;;;20.10;1.00;;;;;;6227316;23;20031;-89
2023/07/20 07:25:22;;;;;;;5.88;2.22;;;20.00;1.00;;;;;;6225453;23;20076;-87
2023/07/20 07:28:14;;;;;;;;;;;20.10;1.00;;;;;;6217144;23;20044;-86
2023/07/20 07:31:13;;;;;;;5.40;2.50;;;20.40;1.00;;;;;;6214707;23;19927;-88
2023/07/20 07:34:04;;;;;;;5.78;2.47;;;20.90;1.00;;;;;;6218391;23;20035;-86
2023/07/20 07:36:52;;;;;;;4.00;2.42;;;20.90;1.00;;;;;;6213480;23;20475;-88
2023/07/20 07:39:39;;;;;;;3.75;2.35;;;21.50;1.00;;;;;;6217783;23;20035;-91
2023/07/20 07:42:29;;;;;;;6.68;2.10;;;22.00;1.00;;;;;;6219307;23;20036;-88
2023/07/20 07:45:20;;;;;;;7.90;2.80;;;21.80;1.00;;;;;;6215941;23;20328;-89
2023/07/20 07:48:11;;;;;;;4.53;2.45;;;21.40;1.00;;;;;;6216715;23;20035;-89
2023/07/20 07:50:58;;;;;;;5.05;2.50;;;20.80;1.00;;;;;;6215676;23;20506;-91
2023/07/20 07:53:46;;;;;;;5.47;2.67;;;21.20;1.00;;;;;;6213524;23;20039;-92
2023/07/20 07:56:34;;;;;;;6.25;2.65;;;21.80;1.00;;;;;;6215247;23;20063;-92
2023/07/20 07:59:22;;;;;;;5.75;2.60;;;21.80;1.00;;;;;;6217396;23;20028;-91
2023/07/20 08:02:11;;;;;;;4.90;2.47;;;22.00;1.00;;;;;;6217077;23;20025;-93
2023/07/20 08:05:06;;;;;;;5.85;2.22;;;21.70;1.00;;;;;;6216070;23;20111;-92
2023/07/20 08:07:53;;;;;;;5.20;2.30;;;21.50;1.00;;;;;;6213731;23;20430;-91
2023/07/20 08:10:41;;;;;;;6.25;2.28;;;21.80;1.00;;;;;;6216640;23;20020;-93
2023/07/20 08:14:35;;;;;;;4.70;2.17;;;22.20;1.00;;;;;;6215959;23;20086;-92
2023/07/20 08:17:33;;;;;;;6.93;2.30;;;22.20;1.00;;;;;;6211907;23;20083;-92
2023/07/20 08:20:28;;;;;;;5.28;2.70;;;21.70;1.00;;;;;;6214390;23;20297;-93
2023/07/20 08:23:19;;;;;;;4.60;2.20;;;22.00;1.00;;;;;;6216622;23;20025;-89
2023/07/20 08:26:17;;;;;;;4.07;1.90;;;23.40;1.00;;;;;;6215117;23;20024;-91
2023/07/20 08:29:10;;;;;;;6.07;2.28;;;24.00;1.00;;;;;;6215277;23;20025;-91
2023/07/20 08:32:10;;;;;;;3.35;2.13;;;23.40;1.00;;;;;;6218099;23;20025;-90
2023/07/20 08:34:58;;;;;;;5.97;2.00;;;22.30;1.00;;;;;;6216625;23;20399;-90
2023/07/20 08:37:52;;;;;;;3.88;2.15;;;21.40;1.00;;;;;;6229043;23;20151;-93
2023/07/20 08:44:45;;;;;;;4.00;2.30;;;21.80;1.00;;;;;;6236392;23;20047;-86
2023/07/20 08:47:49;;;;;;;4.50;2.42;;;22.10;1.00;;;;;;6162245;23;20016;-84
2023/07/20 08:50:39;;;;;;;;;;;21.80;1.00;;;;;;6241260;23;20020;-91
2023/07/20 08:54:36;;;;;;;4.20;2.10;;;21.50;1.00;;;;;;6111952;23;19917;-91
2023/07/20 08:57:22;;;;;;;4.25;2.17;;;21.40;1.00;;;;;;6227925;23;20040;-90
2023/07/20 09:00:12;;;;;;;2.67;2.00;;;21.00;1.00;;;;;;6225095;23;20078;-92
2023/07/20 09:03:03;;;;;;;10.77;1.95;;;20.70;1.00;;;;;;6231867;23;20013;-94
2023/07/20 09:05:52;;;;;;;5.55;2.17;;;20.50;1.00;;;;;;6229495;23;20032;-93
2023/07/20 09:08:42;;;;;;;8.38;5.38;;;20.50;1.00;;;;;;6215160;23;20028;-91
2023/07/20 09:11:30;;;;;;;8.55;4.43;;;20.40;1.00;;;;;;6222133;23;20025;-91
2023/07/20 09:14:25;;;;;;;5.18;1.85;;;21.20;1.00;;;;;;6225665;23;20051;-93
2023/07/20 09:17:20;;;;;;;3.25;1.60;;;22.50;1.00;;;;;;6220518;23;20024;-91
2023/07/20 09:24:14;;;;;;;7.60;1.83;;;22.80;1.00;;;;;;6213150;23;20024;-91
2023/07/20 09:28:05;;;;;;;2.30;1.60;;;23.90;1.00;;;;;;6224528;23;20371;-90
2023/07/20 09:30:57;;;;;;;3.65;1.52;;;24.70;1.00;;;;;;6139275;23;20030;-91
2023/07/20 09:34:18;;;;;;;;;;;;;;;;;;;;;
2023/07/20 09:37:55;;;;;;;;;;;;;;;;;;;;;
2023/07/20 09:41:00;;;;;;;5.32;1.77;;;23.70;1.00;;;;;;6210674;23;20032;-91
2023/07/20 09:43:55;;;;;;;5.60;1.65;;;24.00;1.00;;;;;;6215610;23;20027;-90
2023/07/20 09:46:48;;;;;;;4.10;1.60;;;24.20;1.00;;;;;;6219814;23;20099;-90
2023/07/20 09:49:42;;;;;;;2.45;1.45;;;23.90;1.00;;;;;;6221385;23;20021;-92
2023/07/20 09:52:45;;;;;;;;;;;;;;;;;;;;;
2023/07/20 09:55:40;;;;;;;2.28;1.13;;;26.20;1.00;;;;;;6219029;23;20035;-92
2023/07/20 09:58:32;;;;;;;5.50;1.48;;;27.30;1.00;;;;;;6220975;23;20036;-93
2023/07/20 10:05:59;;;;;;;2.83;1.20;;;26.60;1.00;;;;;;6204992;23;20059;-93
2023/07/20 10:09:03;;;;;;;;;;;;;;;;;;;;;
2023/07/20 10:12:04;;;;;;;2.47;0.90;;;27.50;1.00;;;;;;6167163;23;20031;-90
2023/07/20 10:19:47;;;;;;;2.53;1.58;;;28.70;1.00;;;;;;6212394;23;20070;-94
2023/07/20 10:22:58;;;;;;;2.90;1.35;;;28.20;1.00;;;;;;6220165;23;20028;-92
2023/07/20 10:25:47;;;;;;;5.13;1.65;;;28.80;1.00;;;;;;6223799;23;20036;-90
2023/07/20 10:28:40;;;;;;;2.55;1.38;;;29.80;1.00;;;;;;6233071;23;20059;-91
2023/07/20 10:35:54;;;;;;;3.67;1.25;;;31.10;1.00;;;;;;6232889;23;20293;-93
2023/07/20 10:39:01;;;;;;;3.40;1.08;;;31.80;1.00;;;;;;6225186;23;20025;-92
2023/07/20 10:42:38;;;;;;;2.30;1.20;;;31.50;1.00;;;;;;6170361;23;20080;-94
2023/07/20 10:45:58;;;;;;;1.42;1.08;;;29.20;1.00;;;;;;6142435;23;20026;-91
2023/07/20 10:49:26;;;;;;;1.73;1.20;;;28.40;1.00;;;;;;6147494;23;20037;-88
2023/07/20 10:52:17;;;;;;;1.98;1.10;;;29.50;1.00;;;;;;6142704;23;20056;-91
2023/07/20 10:59:44;;;;;;;2.67;1.50;;;28.80;1.00;;;;;;6171687;23;20048;-91
2023/07/20 11:06:43;;;;;;;2.03;1.30;;;30.00;1.00;;;;;;6154235;23;20728;-90
2023/07/20 11:09:41;;;;;;;2.38;1.02;;;30.00;1.00;;;;;;6139312;23;20029;-92
2023/07/20 11:13:38;;;;;;;1.48;1.13;;;30.40;1.00;;;;;;6118481;23;20021;-94
2023/07/20 11:16:54;;;;;;;;;;;;;;;;;;;;;
2023/07/20 11:20:56;;;;;;;2.15;1.30;;;33.00;1.00;;;;;;6236371;23;20040;-89
2023/07/20 11:24:02;;;;;;;2.03;1.25;;;32.40;1.00;;;;;;6153488;23;20028;-93
2023/07/20 11:31:09;;;;;;;2.90;1.08;;;30.60;1.00;;;;;;6159450;23;20108;-93
2023/07/20 11:42:04;;;;;;;2.72;1.13;;;30.90;1.00;;;;;;5862428;24;20080;-93
2023/07/20 11:44:57;;;;;;;1.90;1.10;;;31.70;1.00;;;;;;5935617;24;20378;-92
2023/07/20 11:48:23;;;;;;;3.20;1.00;;;32.40;1.00;;;;;;5949788;23;20016;-91
2023/07/20 11:52:07;;;;;;;1.25;0.95;;;32.80;1.00;;;;;;6037216;23;20119;-92
2023/07/20 11:54:55;;;;;;;1.48;1.20;;;32.30;1.00;;;;;;6164051;23;20043;-91
2023/07/20 11:58:10;;;;;;;2.42;1.10;;;32.40;99.90;;;;;;6195511;23;20741;-91
2023/07/20 12:01:03;;;;;;;2.22;1.17;;;30.60;1.00;;;;;;6221640;23;20027;-90
2023/07/20 12:03:51;;;;;;;2.05;1.17;;;30.00;1.00;;;;;;6228501;23;20029;-90
2023/07/20 12:06:55;;;;;;;1.83;1.10;;;31.20;1.00;;;;;;6227466;23;20100;-91
2023/07/20 12:09:44;;;;;;;4.00;1.30;;;32.50;1.00;;;;;;6216252;23;20033;-92
2023/07/20 12:12:48;;;;;;;3.60;1.20;;;32.60;99.90;;;;;;6213770;23;20032;-91
2023/07/20 12:15:40;;;;;;;1.55;1.02;;;31.50;99.90;;;;;;6214342;23;20029;-90
2023/07/20 12:18:34;;;;;;;3.00;1.35;;;30.30;99.90;;;;;;6215596;23;20074;-89
2023/07/20 12:21:42;;;;;;;2.42;1.30;;;30.00;99.90;;;;;;6215891;23;20020;-92
2023/07/20 12:45:05;;;;;;;1.80;0.95;;;34.40;99.90;;;;;;6225930;22;20020;-92
2023/07/20 13:00:37;;;;;;;2.05;1.00;;;31.40;99.90;;;;;;6245363;23;20020;-89
2023/07/20 13:32:43;;;;;;;;;;;;;;;;;;;;;
2023/07/20 14:05:02;;;;;;;1.70;1.25;;;34.40;99.90;;;;;;6096636;23;20093;-91
2023/07/20 14:08:15;;;;;;;2.75;1.20;;;33.40;99.90;;;;;;6098926;23;20042;-91
2023/07/20 14:11:37;;;;;;;4.82;1.35;;;32.90;99.90;;;;;;6083445;23;20022;-92
2023/07/20 14:14:27;;;;;;;;;;;34.10;99.90;;;;;;6100091;23;20037;-91
2023/07/20 14:17:14;;;;;;;3.72;1.13;;;32.60;99.90;;;;;;6100875;23;20197;-92
2023/07/20 14:20:08;;;;;;;1.95;1.48;;;32.10;99.90;;;;;;6098665;23;20430;-92
2023/07/20 14:23:08;;;;;;;1.65;1.10;;;31.60;99.90;;;;;;6103001;23;20334;-93
2023/07/20 14:26:21;;;;;;;2.05;1.10;;;32.60;99.90;;;;;;6246836;23;20035;-93
2023/07/20 14:29:25;;;;;;;2.42;1.30;;;33.80;99.90;;;;;;6247693;23;20052;-93
2023/07/20 14:32:28;;;;;;;1.90;1.02;;;34.00;99.90;;;;;;6222974;23;20042;-91
2023/07/20 14:35:25;;;;;;;1.27;1.10;;;34.50;99.90;;;;;;6247903;23;20427;-92
2023/07/20 14:39:36;;;;;;;4.03;1.20;;;34.90;99.90;;;;;;6245117;23;20028;-93
2023/07/20 14:42:32;;;;;;;1.35;1.20;;;33.90;99.90;;;;;;6248125;23;20028;-92
2023/07/20 14:45:51;;;;;;;1.80;1.13;;;31.70;99.90;;;;;;6246962;23;20024;-94
2023/07/20 14:48:43;;;;;;;2.00;1.10;;;31.80;99.90;;;;;;6227673;23;20032;-93
2023/07/20 14:51:53;;;;;;;;;;;;;;;;;;;;;
2023/07/20 14:54:55;;;;;;;3.70;1.60;;;31.60;99.90;;;;;;6245964;23;20027;-93
2023/07/20 14:57:43;;;;;;;1.70;1.15;;;32.80;99.90;;;;;;6226708;23;20031;-91
2023/07/20 15:00:32;;;;;;;5.22;1.33;;;33.00;99.90;;;;;;6252869;23;20024;-92
2023/07/20 15:03:27;;;;;;;2.45;1.02;;;32.40;99.90;;;;;;6247577;23;20085;-93
2023/07/20 15:06:33;;;;;;;3.58;1.10;;;33.00;99.90;;;;;;6228632;23;20052;-94
2023/07/20 15:09:26;;;;;;;2.03;1.27;;;32.70;99.90;;;;;;6252518;23;20333;-92
2023/07/20 15:12:26;;;;;;;2.13;1.23;;;31.20;99.90;;;;;;6227510;23;20050;-91
2023/07/20 15:15:40;;;;;;;1.23;1.10;;;29.70;99.90;;;;;;6247795;23;20094;-92
2023/07/20 15:18:35;;;;;;;3.40;1.15;;;28.00;99.90;;;;;;6246495;23;20024;-93
2023/07/20 15:21:39;;;;;;;2.60;1.40;;;27.50;99.90;;;;;;6250741;23;20042;-93
2023/07/20 15:24:51;;;;;;;;;;;;;;;;;;;;;
2023/07/20 15:27:55;;;;;;;1.50;1.20;;;28.70;99.90;;;;;;6247107;23;20028;-92
2023/07/20 15:31:23;;;;;;;2.53;1.38;;;29.70;99.90;;;;;;6231814;23;20016;-92
2023/07/20 15:35:05;;;;;;;;;;;;;;;;;;;;;
2023/07/20 15:37:55;;;;;;;3.95;1.30;;;28.30;99.90;;;;;;6126013;23;20040;-89
2023/07/20 15:40:43;;;;;;;4.32;1.20;;;28.00;99.90;;;;;;6171552;23;20720;-91
2023/07/20 15:43:33;;;;;;;3.42;1.05;;;28.40;99.90;;;;;;6222523;23;20039;-89
2023/07/20 15:46:20;;;;;;;2.05;1.38;;;28.30;99.90;;;;;;6222629;23;20392;-90
2023/07/20 15:49:08;;;;;;;1.27;0.90;;;27.80;99.90;;;;;;6243370;23;20039;-89
2023/07/20 15:51:56;;;;;;;2.28;1.27;;;27.50;99.90;;;;;;6244397;23;20107;-90
2023/07/20 15:54:44;;;;;;;2.17;1.33;;;27.30;99.90;;;;;;6248861;23;20335;-91
2023/07/20 15:57:33;;;;;;;3.75;1.27;;;27.00;99.90;;;;;;6250577;23;20030;-90
2023/07/20 16:00:23;;;;;;;2.33;1.50;;;27.10;99.90;;;;;;6236610;23;20031;-90
2023/07/20 16:03:13;;;;;;;1.20;1.10;;;27.60;99.90;;;;;;6266928;23;20054;-89
2023/07/20 16:06:03;;;;;;;2.60;1.30;;;27.40;99.90;;;;;;6245385;23;20015;-90
2023/07/20 16:08:57;;;;;;;4.78;1.38;;;27.50;99.90;;;;;;6248907;23;20027;-90
2023/07/20 16:12:07;;;;;;;3.05;1.27;;;27.50;99.90;;;;;;6244923;23;20048;-87
2023/07/20 16:14:54;;;;;;;2.20;1.30;;;27.30;99.90;;;;;;6225418;23;20024;-88
2023/07/20 16:17:50;;;;;;;7.53;1.25;;;27.20;99.90;;;;;;6244976;23;20028;-87
2023/07/20 16:20:38;;;;;;;2.63;1.20;;;26.90;99.90;;;;;;6243317;23;20024;-89
2023/07/20 16:23:25;;;;;;;1.77;1.20;;;26.80;99.90;;;;;;6255338;23;20024;-89
2023/07/20 16:26:15;;;;;;;1.80;1.13;;;26.90;99.90;;;;;;6258030;23;20084;-91
2023/07/20 16:29:03;;;;;;;2.45;1.38;;;26.90;99.90;;;;;;6257868;23;20032;-89
2023/07/20 16:31:53;;;;;;;5.60;1.30;;;27.00;99.90;;;;;;6230854;23;20034;-89
2023/07/20 16:34:43;;;;;;;4.65;1.40;;;26.90;99.90;;;;;;6229990;23;20024;-87
2023/07/20 16:37:35;;;;;;;3.88;1.23;;;26.90;99.90;;;;;;6255931;23;20028;-87
2023/07/20 16:40:25;;;;;;;1.45;1.05;;;27.00;99.90;;;;;;6236971;23;20034;-87
2023/07/20 16:43:15;;;;;;;2.33;1.30;;;26.90;99.90;;;;;;6254698;23;20109;-85
2023/07/20 16:46:25;;;;;;;1.35;1.10;;;26.60;99.90;;;;;;6248575;23;20487;-86
2023/07/20 16:49:15;;;;;;;3.22;1.35;;;26.30;99.90;;;;;;6252587;23;20024;-88
2023/07/20 16:52:03;;;;;;;1.65;1.10;;;25.80;99.90;;;;;;6222922;23;20039;-87
2023/07/20 16:54:57;;;;;;;1.60;1.05;;;25.40;99.90;;;;;;6245727;23;20084;-88
2023/07/20 16:57:45;;;;;;;2.42;1.30;;;25.00;99.90;;;;;;6247386;23;20039;-88
2023/07/20 17:00:35;;;;;;;1.42;1.23;;;24.80;99.90;;;;;;6245238;23;20034;-87
2023/07/20 17:03:25;;;;;;;2.90;2.25;;;24.60;99.90;;;;;;6247449;23;20035;-87
2023/07/20 17:06:12;;;;;;;2.55;1.38;;;24.30;99.90;;;;;;6246101;23;20044;-89
2023/07/20 17:09:01;;;;;;;4.47;1.75;;;23.90;1.00;;;;;;6223566;23;20028;-87
2023/07/20 17:11:51;;;;;;;1.92;1.13;;;23.60;99.90;;;;;;6244923;23;20024;-90
2023/07/20 17:14:38;;;;;;;1.23;1.10;;;23.50;99.90;;;;;;6247193;23;20039;-89
2023/07/20 17:17:25;;;;;;;3.30;1.25;;;23.40;99.90;;;;;;6225213;23;20118;-86
2023/07/20 17:20:13;;;;;;;1.65;1.40;;;23.30;99.90;;;;;;6242217;23;20043;-87
2023/07/20 17:23:03;;;;;;;2.25;1.27;;;23.30;99.90;;;;;;6245604;23;20031;-88
2023/07/20 17:25:51;;;;;;;2.05;1.17;;;23.20;99.90;;;;;;6240699;23;20050;-90
2023/07/20 17:28:41;;;;;;;3.78;1.40;;;23.00;99.90;;;;;;6258996;23;20075;-91
2023/07/20 17:31:33;;;;;;;2.17;1.30;;;22.90;99.90;;;;;;6258835;23;20038;-90
2023/07/20 17:34:21;;;;;;;2.75;1.27;;;22.80;99.90;;;;;;6255284;23;20035;-88
2023/07/20 17:37:08;;;;;;;3.30;1.25;;;22.60;99.90;;;;;;6250665;23;20024;-86
2023/07/20 17:40:09;;;;;;;1.48;1.00;;;22.50;99.90;;;;;;6249278;23;20031;-84
2023/07/20 17:43:01;;;;;;;1.65;1.40;;;22.20;99.90;;;;;;6226835;23;20028;-89